Weather at Hughes Airport

Public forecast

Using degrees Fahrenheit for public forecast. Weather courtesy of forecast.io.

Closest aviation weather report (METAR) to Hughes Airport

Closest report is Monroe Municipal Airport, 7.8 nm (14.5 km) E. Retrieved 2021/06/13 17:35 UTC (12 minutes ago):

KEFT 131735Z AUTO 04006KT 10SM CLR 29/07 A3003 RMK AO2 T02910072

Closest aviation forecast (TAF) to Hughes Airport

Closest forecast is Southern Wisconsin Regional Airport, 32.1 nm (59.4 km) E. Retrieved 2021/06/13 12:22 UTC (5 hours ago):

TAF KJVL 131120Z 1312/1412 34004KT P6SM SKC FM131700 33008KT P6SM SKC FM140200 24004KT P6SM SKC FM140700 29007KT P6SM FEW200